INFORMACIÓN METAR y TAF
METAR FOR LIPR
ADDS - METARS form results

(0137 UTC 03 October 2022)
Data provider http://aviationweather.gov/metar/data/
 
METAR text: LIPR 030120Z AUTO VRB02KT 9999 BKN051/// 16/14 Q1017
Conditions at: LIPR (RIMINI (CIV/IT-A, IT) observed 0120 UTC 03 October 2022
Temperature: 16.0°C (61°F)
Dewpoint: 14.0°C (57°F) [RH = 88%]
Pressure (altimeter): 30.03 inches Hg (1017.0 mb)
Winds: variable direction winds at 2 MPH (2 knots; 1.0 m/s)
Visibility: 6 or more miles (10+ km)
Ceiling: 5100 feet AGL
Clouds: broken clouds at 5100 feet AGL
Weather: no significant weather observed at this time

METAR text: LIPR 030050Z AUTO 21005KT 9999 BKN049/// 16/13 Q1017
Conditions at: LIPR (RIMINI (CIV/IT-A, IT) observed 0050 UTC 03 October 2022
Temperature: 16.0°C (61°F)
Dewpoint: 13.0°C (55°F) [RH = 82%]
Pressure (altimeter): 30.03 inches Hg (1017.0 mb)
Winds: from the SSW (210 degrees) at 6 MPH (5 knots; 2.6 m/s)
Visibility: 6 or more miles (10+ km)
Ceiling: 4900 feet AGL
Clouds: broken clouds at 4900 feet AGL
Weather: no significant weather observed at this time

Forecast for: LIPR (RIMINI (CIV/IT-A, IT)
Text: TAF LIPR 022300Z 0300/0324 VRB06KT 9999 FEW050
Forecast period: 0000 to 0700 UTC 03 October 2022
Forecast type: FROM: standard forecast or significant change
Winds: variable direction winds at 7 MPH (6 knots; 3.1 m/s)
Visibility: 6 or more miles (10+ km)
Ceiling: at least 12,000 feet AGL
Clouds: few clouds at 5000 feet AGL
Weather: no significant weather forecast for this period
Text: BECMG 0307/0309 32010KT
Forecast period: 0700 to 1100 UTC 03 October 2022
Forecast type: BECOMING: Conditions expected to become as follows by 0900 UTC 03 October 2022
Winds: from the NW (320 degrees) at 12 MPH (10 knots; 5.1 m/s)
Visibility: 6 or more miles (10+ km)
Ceiling: at least 12,000 feet AGL
Clouds: few clouds at 5000 feet AGL
Weather: no significant weather forecast for this period
Text: BECMG 0311/0313 03010KT
Forecast period: 1100 to 1600 UTC 03 October 2022
Forecast type: BECOMING: Conditions expected to become as follows by 1300 UTC 03 October 2022
Winds: from the NNE (30 degrees) at 12 MPH (10 knots; 5.1 m/s)
Visibility: 6 or more miles (10+ km)
Ceiling: at least 12,000 feet AGL
Clouds: few clouds at 5000 feet AGL
Weather: no significant weather forecast for this period
Text: BECMG 0316/0318 14008KT
Forecast period: 1600 UTC 03 October 2022 to 0000 UTC 04 October 2022
Forecast type: BECOMING: Conditions expected to become as follows by 1800 UTC 03 October 2022
Winds: from the SE (140 degrees) at 9 MPH (8 knots; 4.1 m/s)
Visibility: 6 or more miles (10+ km)
Ceiling: at least 12,000 feet AGL
Clouds: few clouds at 5000 feet AGL
Weather: no significant weather forecast for this period

 MAPA DE AEROPUERTO

 INFORMACIÓN DE PISTA